Terminal Aerodrome Forecast
Issued by NWS

Home | Current Version | Previous Version | Text Only | Print | Product List | Glossary On
Versions: 1 2 3 4 5 6 7 8 9 10 11 12 13 14 15 16 17
000
FTUS44 KTSA 190500
TAFMLC
TAF
KMLC 190520Z 1906/2006 11004KT P6SM SKC
     FM190900 00000KT 5SM BR SCT025
     FM191500 17008KT P6SM SCT040
     FM200100 VRB03KT P6SM SCT250=

USA.gov is the U.S. government's official web portal to all federal, state and local government web resources and services.